sensor_id;sensor_type;location;lat;lon;timestamp;temperature;humidity
34406;DHT22;20658;45.630;8.886;2023-07-31T00:01:00;22.10;99.90
34406;DHT22;20658;45.630;8.886;2023-07-31T00:03:28;22.10;99.90
34406;DHT22;20658;45.630;8.886;2023-07-31T00:06:02;22.10;99.90
34406;DHT22;20658;45.630;8.886;2023-07-31T00:08:35;22.10;99.90
34406;DHT22;20658;45.630;8.886;2023-07-31T00:11:09;22.10;99.90
34406;DHT22;20658;45.630;8.886;2023-07-31T00:13:43;22.10;99.90
34406;DHT22;20658;45.630;8.886;2023-07-31T00:16:17;22.10;99.90
34406;DHT22;20658;45.630;8.886;2023-07-31T00:18:45;22.00;99.90
34406;DHT22;20658;45.630;8.886;2023-07-31T00:21:19;22.00;99.90
34406;DHT22;20658;45.630;8.886;2023-07-31T00:23:52;22.00;99.90
34406;DHT22;20658;45.630;8.886;2023-07-31T00:26:25;22.00;99.90
34406;DHT22;20658;45.630;8.886;2023-07-31T00:29:00;22.00;99.90
34406;DHT22;20658;45.630;8.886;2023-07-31T00:31:34;22.00;99.90
34406;DHT22;20658;45.630;8.886;2023-07-31T00:34:02;22.00;99.90
34406;DHT22;20658;45.630;8.886;2023-07-31T00:36:36;22.00;99.90
34406;DHT22;20658;45.630;8.886;2023-07-31T00:39:04;22.00;99.90
34406;DHT22;20658;45.630;8.886;2023-07-31T00:41:33;22.10;99.90
34406;DHT22;20658;45.630;8.886;2023-07-31T00:44:07;22.10;99.90
34406;DHT22;20658;45.630;8.886;2023-07-31T00:46:36;22.10;99.90
34406;DHT22;20658;45.630;8.886;2023-07-31T00:49:05;22.10;99.90
34406;DHT22;20658;45.630;8.886;2023-07-31T00:51:39;22.20;99.90
34406;DHT22;20658;45.630;8.886;2023-07-31T00:54:13;22.20;99.90
34406;DHT22;20658;45.630;8.886;2023-07-31T00:56:46;22.20;99.90
34406;DHT22;20658;45.630;8.886;2023-07-31T00:59:22;22.20;99.90
34406;DHT22;20658;45.630;8.886;2023-07-31T01:01:56;22.30;99.90
34406;DHT22;20658;45.630;8.886;2023-07-31T01:04:30;22.30;99.90
34406;DHT22;20658;45.630;8.886;2023-07-31T01:07:09;22.30;99.90
34406;DHT22;20658;45.630;8.886;2023-07-31T01:09:47;22.30;99.90
34406;DHT22;20658;45.630;8.886;2023-07-31T01:12:26;22.40;99.90
34406;DHT22;20658;45.630;8.886;2023-07-31T01:15:07;22.40;99.90
34406;DHT22;20658;45.630;8.886;2023-07-31T01:17:43;22.40;99.90
34406;DHT22;20658;45.630;8.886;2023-07-31T01:20:20;22.30;99.90
34406;DHT22;20658;45.630;8.886;2023-07-31T01:26:12;22.30;99.90
34406;DHT22;20658;45.630;8.886;2023-07-31T01:28:51;22.40;99.90
34406;DHT22;20658;45.630;8.886;2023-07-31T01:31:29;22.40;99.90
34406;DHT22;20658;45.630;8.886;2023-07-31T01:34:03;22.30;99.90
34406;DHT22;20658;45.630;8.886;2023-07-31T01:36:37;22.30;99.90
34406;DHT22;20658;45.630;8.886;2023-07-31T01:39:10;22.40;99.90
34406;DHT22;20658;45.630;8.886;2023-07-31T01:41:45;22.40;99.90
34406;DHT22;20658;45.630;8.886;2023-07-31T01:44:20;22.40;99.90
34406;DHT22;20658;45.630;8.886;2023-07-31T01:46:54;22.40;99.90
34406;DHT22;20658;45.630;8.886;2023-07-31T01:49:27;22.50;99.90
34406;DHT22;20658;45.630;8.886;2023-07-31T01:52:00;22.60;99.90
34406;DHT22;20658;45.630;8.886;2023-07-31T01:54:34;22.60;99.90
34406;DHT22;20658;45.630;8.886;2023-07-31T01:57:10;22.60;99.90
34406;DHT22;20658;45.630;8.886;2023-07-31T01:59:43;22.70;99.90
34406;DHT22;20658;45.630;8.886;2023-07-31T02:02:17;22.70;99.90
34406;DHT22;20658;45.630;8.886;2023-07-31T02:04:51;22.70;99.90
34406;DHT22;20658;45.630;8.886;2023-07-31T02:07:25;22.70;99.90
34406;DHT22;20658;45.630;8.886;2023-07-31T02:09:58;22.70;99.90
34406;DHT22;20658;45.630;8.886;2023-07-31T02:12:33;22.70;99.90
34406;DHT22;20658;45.630;8.886;2023-07-31T02:15:07;22.60;99.90
34406;DHT22;20658;45.630;8.886;2023-07-31T02:17:41;22.60;99.90
34406;DHT22;20658;45.630;8.886;2023-07-31T02:20:14;22.60;99.90
34406;DHT22;20658;45.630;8.886;2023-07-31T02:22:48;22.60;99.90
34406;DHT22;20658;45.630;8.886;2023-07-31T02:25:21;22.60;99.90
34406;DHT22;20658;45.630;8.886;2023-07-31T02:27:56;22.60;99.90
34406;DHT22;20658;45.630;8.886;2023-07-31T02:30:30;22.50;99.90
34406;DHT22;20658;45.630;8.886;2023-07-31T02:33:04;22.50;99.90
34406;DHT22;20658;45.630;8.886;2023-07-31T02:35:32;22.50;99.90
34406;DHT22;20658;45.630;8.886;2023-07-31T02:38:05;22.50;99.90
34406;DHT22;20658;45.630;8.886;2023-07-31T02:40:39;22.50;99.90
34406;DHT22;20658;45.630;8.886;2023-07-31T02:43:15;22.40;99.90
34406;DHT22;20658;45.630;8.886;2023-07-31T02:45:51;22.40;99.90
34406;DHT22;20658;45.630;8.886;2023-07-31T02:48:25;22.40;99.90
34406;DHT22;20658;45.630;8.886;2023-07-31T02:50:58;22.40;99.90
34406;DHT22;20658;45.630;8.886;2023-07-31T02:53:31;22.40;99.90
34406;DHT22;20658;45.630;8.886;2023-07-31T02:56:05;22.40;99.90
34406;DHT22;20658;45.630;8.886;2023-07-31T02:58:40;22.30;99.90
34406;DHT22;20658;45.630;8.886;2023-07-31T03:01:08;22.30;99.90
34406;DHT22;20658;45.630;8.886;2023-07-31T03:03:42;22.30;99.90
34406;DHT22;20658;45.630;8.886;2023-07-31T03:06:15;22.30;99.90
34406;DHT22;20658;45.630;8.886;2023-07-31T03:08:49;22.20;99.90
34406;DHT22;20658;45.630;8.886;2023-07-31T03:11:22;22.20;99.90
34406;DHT22;20658;45.630;8.886;2023-07-31T03:13:57;22.20;99.90
34406;DHT22;20658;45.630;8.886;2023-07-31T03:16:31;22.10;99.90
34406;DHT22;20658;45.630;8.886;2023-07-31T03:19:04;22.10;99.90
34406;DHT22;20658;45.630;8.886;2023-07-31T03:21:38;22.10;99.90
34406;DHT22;20658;45.630;8.886;2023-07-31T03:24:11;22.10;99.90
34406;DHT22;20658;45.630;8.886;2023-07-31T03:26:45;22.10;99.90
34406;DHT22;20658;45.630;8.886;2023-07-31T03:29:22;22.10;99.90
34406;DHT22;20658;45.630;8.886;2023-07-31T03:31:57;22.10;99.90
34406;DHT22;20658;45.630;8.886;2023-07-31T03:34:31;22.00;99.90
34406;DHT22;20658;45.630;8.886;2023-07-31T03:37:05;22.00;99.90
34406;DHT22;20658;45.630;8.886;2023-07-31T03:39:41;22.00;99.90
34406;DHT22;20658;45.630;8.886;2023-07-31T03:42:14;22.00;99.90
34406;DHT22;20658;45.630;8.886;2023-07-31T03:44:51;22.00;99.90
34406;DHT22;20658;45.630;8.886;2023-07-31T03:47:26;22.00;99.90
34406;DHT22;20658;45.630;8.886;2023-07-31T03:49:59;22.00;99.90
34406;DHT22;20658;45.630;8.886;2023-07-31T03:52:33;22.00;99.90
34406;DHT22;20658;45.630;8.886;2023-07-31T03:55:07;21.90;99.90
34406;DHT22;20658;45.630;8.886;2023-07-31T03:57:40;21.90;99.90
34406;DHT22;20658;45.630;8.886;2023-07-31T04:00:15;21.90;99.90
34406;DHT22;20658;45.630;8.886;2023-07-31T04:02:49;21.90;99.90
34406;DHT22;20658;45.630;8.886;2023-07-31T04:05:22;21.90;99.90
34406;DHT22;20658;45.630;8.886;2023-07-31T04:07:56;21.90;99.90
34406;DHT22;20658;45.630;8.886;2023-07-31T04:10:29;22.00;99.90
34406;DHT22;20658;45.630;8.886;2023-07-31T04:13:05;22.00;99.90
34406;DHT22;20658;45.630;8.886;2023-07-31T04:15:39;22.00;99.90
34406;DHT22;20658;45.630;8.886;2023-07-31T04:18:13;21.90;99.90
34406;DHT22;20658;45.630;8.886;2023-07-31T04:20:46;21.90;99.90
34406;DHT22;20658;45.630;8.886;2023-07-31T04:23:20;22.00;99.90
34406;DHT22;20658;45.630;8.886;2023-07-31T04:25:53;22.00;99.90
34406;DHT22;20658;45.630;8.886;2023-07-31T04:28:26;22.00;99.90
34406;DHT22;20658;45.630;8.886;2023-07-31T04:31:01;22.00;99.90
34406;DHT22;20658;45.630;8.886;2023-07-31T04:33:35;22.10;99.90
34406;DHT22;20658;45.630;8.886;2023-07-31T04:36:08;22.10;99.90
34406;DHT22;20658;45.630;8.886;2023-07-31T04:38:41;22.10;99.90
34406;DHT22;20658;45.630;8.886;2023-07-31T04:41:15;22.20;99.90
34406;DHT22;20658;45.630;8.886;2023-07-31T04:43:48;22.20;99.90
34406;DHT22;20658;45.630;8.886;2023-07-31T04:46:23;22.20;99.90
34406;DHT22;20658;45.630;8.886;2023-07-31T04:48:57;22.20;99.90
34406;DHT22;20658;45.630;8.886;2023-07-31T04:51:30;22.20;99.90
34406;DHT22;20658;45.630;8.886;2023-07-31T04:54:03;22.10;99.90
34406;DHT22;20658;45.630;8.886;2023-07-31T04:56:37;22.10;99.90
34406;DHT22;20658;45.630;8.886;2023-07-31T04:59:10;22.20;99.90
34406;DHT22;20658;45.630;8.886;2023-07-31T05:01:45;22.30;99.90
34406;DHT22;20658;45.630;8.886;2023-07-31T05:04:18;22.30;99.90
34406;DHT22;20658;45.630;8.886;2023-07-31T05:06:51;22.40;99.90
34406;DHT22;20658;45.630;8.886;2023-07-31T05:09:25;22.40;99.90
34406;DHT22;20658;45.630;8.886;2023-07-31T05:11:58;22.50;99.90
34406;DHT22;20658;45.630;8.886;2023-07-31T05:14:32;22.50;99.90
34406;DHT22;20658;45.630;8.886;2023-07-31T05:17:07;22.50;99.90
34406;DHT22;20658;45.630;8.886;2023-07-31T05:19:40;22.60;99.90
34406;DHT22;20658;45.630;8.886;2023-07-31T05:22:14;22.60;99.90
34406;DHT22;20658;45.630;8.886;2023-07-31T05:24:47;22.60;99.90
34406;DHT22;20658;45.630;8.886;2023-07-31T05:27:21;22.60;99.90
34406;DHT22;20658;45.630;8.886;2023-07-31T05:29:54;22.60;99.90
34406;DHT22;20658;45.630;8.886;2023-07-31T05:32:29;22.70;99.90
34406;DHT22;20658;45.630;8.886;2023-07-31T05:35:03;22.70;99.90
34406;DHT22;20658;45.630;8.886;2023-07-31T05:37:37;22.70;99.90
34406;DHT22;20658;45.630;8.886;2023-07-31T05:40:11;22.70;99.90
34406;DHT22;20658;45.630;8.886;2023-07-31T05:42:44;22.60;99.90
34406;DHT22;20658;45.630;8.886;2023-07-31T05:45:18;22.60;99.90
34406;DHT22;20658;45.630;8.886;2023-07-31T05:47:52;22.60;99.90
34406;DHT22;20658;45.630;8.886;2023-07-31T05:50:26;22.70;99.90
34406;DHT22;20658;45.630;8.886;2023-07-31T05:52:59;22.80;99.90
34406;DHT22;20658;45.630;8.886;2023-07-31T05:55:32;22.80;99.90
34406;DHT22;20658;45.630;8.886;2023-07-31T05:58:06;22.90;99.90
34406;DHT22;20658;45.630;8.886;2023-07-31T06:00:39;23.00;99.90
34406;DHT22;20658;45.630;8.886;2023-07-31T06:03:15;23.00;99.90
34406;DHT22;20658;45.630;8.886;2023-07-31T06:05:48;23.10;99.90
34406;DHT22;20658;45.630;8.886;2023-07-31T06:08:21;23.10;99.90
34406;DHT22;20658;45.630;8.886;2023-07-31T06:10:55;23.00;99.90
34406;DHT22;20658;45.630;8.886;2023-07-31T06:13:28;23.20;99.90
34406;DHT22;20658;45.630;8.886;2023-07-31T06:16:02;23.30;99.90
34406;DHT22;20658;45.630;8.886;2023-07-31T06:18:38;23.30;99.90
34406;DHT22;20658;45.630;8.886;2023-07-31T06:21:11;23.30;99.90
34406;DHT22;20658;45.630;8.886;2023-07-31T06:23:45;23.30;99.90
34406;DHT22;20658;45.630;8.886;2023-07-31T06:26:18;23.30;99.90
34406;DHT22;20658;45.630;8.886;2023-07-31T06:28:52;23.30;99.90
34406;DHT22;20658;45.630;8.886;2023-07-31T06:31:25;23.30;99.70
34406;DHT22;20658;45.630;8.886;2023-07-31T06:34:00;23.30;97.70
34406;DHT22;20658;45.630;8.886;2023-07-31T06:36:33;23.40;96.40
34406;DHT22;20658;45.630;8.886;2023-07-31T06:39:07;23.40;94.50
34406;DHT22;20658;45.630;8.886;2023-07-31T06:41:41;23.60;93.20
34406;DHT22;20658;45.630;8.886;2023-07-31T06:44:14;23.70;91.80
34406;DHT22;20658;45.630;8.886;2023-07-31T06:46:48;23.80;90.50
34406;DHT22;20658;45.630;8.886;2023-07-31T06:49:23;23.90;89.30
34406;DHT22;20658;45.630;8.886;2023-07-31T06:51:56;24.10;88.80
34406;DHT22;20658;45.630;8.886;2023-07-31T06:54:30;24.20;87.50
34406;DHT22;20658;45.630;8.886;2023-07-31T06:57:04;24.20;87.80
34406;DHT22;20658;45.630;8.886;2023-07-31T06:59:37;24.20;87.80
34406;DHT22;20658;45.630;8.886;2023-07-31T07:02:11;24.10;85.80
34406;DHT22;20658;45.630;8.886;2023-07-31T07:04:46;24.20;86.10
34406;DHT22;20658;45.630;8.886;2023-07-31T07:07:19;24.50;83.80
34406;DHT22;20658;45.630;8.886;2023-07-31T07:09:52;24.70;83.00
34406;DHT22;20658;45.630;8.886;2023-07-31T07:12:26;24.80;81.40
34406;DHT22;20658;45.630;8.886;2023-07-31T07:15:00;24.80;80.90
34406;DHT22;20658;45.630;8.886;2023-07-31T07:17:34;24.80;80.90
34406;DHT22;20658;45.630;8.886;2023-07-31T07:20:09;24.80;82.00
34406;DHT22;20658;45.630;8.886;2023-07-31T07:22:42;24.80;82.10
34406;DHT22;20658;45.630;8.886;2023-07-31T07:25:16;24.80;82.40
34406;DHT22;20658;45.630;8.886;2023-07-31T07:27:49;25.10;82.20
34406;DHT22;20658;45.630;8.886;2023-07-31T07:30:23;25.10;81.80
34406;DHT22;20658;45.630;8.886;2023-07-31T07:32:57;25.10;82.30
34406;DHT22;20658;45.630;8.886;2023-07-31T07:35:34;25.10;82.90
34406;DHT22;20658;45.630;8.886;2023-07-31T07:38:08;25.40;82.80
34406;DHT22;20658;45.630;8.886;2023-07-31T07:40:41;25.70;82.50
34406;DHT22;20658;45.630;8.886;2023-07-31T07:43:15;25.90;81.30
34406;DHT22;20658;45.630;8.886;2023-07-31T07:45:48;26.40;80.30
34406;DHT22;20658;45.630;8.886;2023-07-31T07:48:22;26.20;81.10
34406;DHT22;20658;45.630;8.886;2023-07-31T07:50:58;26.40;81.10
34406;DHT22;20658;45.630;8.886;2023-07-31T07:53:31;26.60;81.00
34406;DHT22;20658;45.630;8.886;2023-07-31T07:56:05;26.90;79.90
34406;DHT22;20658;45.630;8.886;2023-07-31T07:58:38;26.70;80.00
34406;DHT22;20658;45.630;8.886;2023-07-31T08:01:11;26.80;80.20
34406;DHT22;20658;45.630;8.886;2023-07-31T08:03:45;26.60;79.80
34406;DHT22;20658;45.630;8.886;2023-07-31T08:06:19;26.60;80.30
34406;DHT22;20658;45.630;8.886;2023-07-31T08:08:54;26.90;79.60
34406;DHT22;20658;45.630;8.886;2023-07-31T08:11:27;27.30;79.00
34406;DHT22;20658;45.630;8.886;2023-07-31T08:14:04;27.50;78.90
34406;DHT22;20658;45.630;8.886;2023-07-31T08:16:37;27.40;78.90
34406;DHT22;20658;45.630;8.886;2023-07-31T08:19:10;27.50;78.30
34406;DHT22;20658;45.630;8.886;2023-07-31T08:21:45;27.50;79.30
34406;DHT22;20658;45.630;8.886;2023-07-31T08:24:19;27.90;78.20
34406;DHT22;20658;45.630;8.886;2023-07-31T08:26:52;28.30;77.80
34406;DHT22;20658;45.630;8.886;2023-07-31T08:29:26;28.40;76.80
34406;DHT22;20658;45.630;8.886;2023-07-31T08:31:59;28.40;76.90
34406;DHT22;20658;45.630;8.886;2023-07-31T08:34:33;28.50;76.50
34406;DHT22;20658;45.630;8.886;2023-07-31T08:37:07;28.50;77.00
34406;DHT22;20658;45.630;8.886;2023-07-31T08:39:41;28.50;76.70
34406;DHT22;20658;45.630;8.886;2023-07-31T08:42:14;29.00;76.00
34406;DHT22;20658;45.630;8.886;2023-07-31T08:44:48;29.10;75.70
34406;DHT22;20658;45.630;8.886;2023-07-31T08:47:22;29.30;75.40
34406;DHT22;20658;45.630;8.886;2023-07-31T08:49:57;29.30;76.20
34406;DHT22;20658;45.630;8.886;2023-07-31T08:52:33;29.60;75.60
34406;DHT22;20658;45.630;8.886;2023-07-31T08:55:07;29.60;76.10
34406;DHT22;20658;45.630;8.886;2023-07-31T08:57:42;30.00;75.20
34406;DHT22;20658;45.630;8.886;2023-07-31T09:00:16;30.00;74.20
34406;DHT22;20658;45.630;8.886;2023-07-31T09:02:56;30.10;73.80
34406;DHT22;20658;45.630;8.886;2023-07-31T09:05:31;29.60;73.80
34406;DHT22;20658;45.630;8.886;2023-07-31T09:08:07;29.80;74.40
34406;DHT22;20658;45.630;8.886;2023-07-31T09:10:42;29.90;73.90
34406;DHT22;20658;45.630;8.886;2023-07-31T09:13:17;29.70;74.30
34406;DHT22;20658;45.630;8.886;2023-07-31T09:15:51;29.80;73.90
34406;DHT22;20658;45.630;8.886;2023-07-31T09:18:24;30.00;72.90
34406;DHT22;20658;45.630;8.886;2023-07-31T09:21:02;29.80;72.40
34406;DHT22;20658;45.630;8.886;2023-07-31T09:23:44;29.80;73.00
34406;DHT22;20658;45.630;8.886;2023-07-31T09:26:30;30.10;72.40
34406;DHT22;20658;45.630;8.886;2023-07-31T09:29:06;30.50;72.30
34406;DHT22;20658;45.630;8.886;2023-07-31T09:31:42;30.40;70.40
34406;DHT22;20658;45.630;8.886;2023-07-31T09:34:16;29.90;71.70
34406;DHT22;20658;45.630;8.886;2023-07-31T09:36:50;29.90;71.60
34406;DHT22;20658;45.630;8.886;2023-07-31T09:39:27;30.00;71.80
34406;DHT22;20658;45.630;8.886;2023-07-31T09:42:00;30.20;71.40
34406;DHT22;20658;45.630;8.886;2023-07-31T09:44:38;30.40;70.70
34406;DHT22;20658;45.630;8.886;2023-07-31T09:47:22;30.60;69.80
34406;DHT22;20658;45.630;8.886;2023-07-31T09:49:56;30.40;70.80
34406;DHT22;20658;45.630;8.886;2023-07-31T09:52:30;30.90;69.10
34406;DHT22;20658;45.630;8.886;2023-07-31T09:55:05;30.70;69.40
34406;DHT22;20658;45.630;8.886;2023-07-31T09:57:40;30.70;68.70
34406;DHT22;20658;45.630;8.886;2023-07-31T10:00:16;30.80;68.80
34406;DHT22;20658;45.630;8.886;2023-07-31T10:02:51;30.70;68.50
34406;DHT22;20658;45.630;8.886;2023-07-31T10:05:30;30.80;68.80
34406;DHT22;20658;45.630;8.886;2023-07-31T10:08:08;30.60;68.40
34406;DHT22;20658;45.630;8.886;2023-07-31T10:10:45;30.80;69.10
34406;DHT22;20658;45.630;8.886;2023-07-31T10:13:21;31.10;68.20
34406;DHT22;20658;45.630;8.886;2023-07-31T10:15:54;31.70;66.00
34406;DHT22;20658;45.630;8.886;2023-07-31T10:18:32;32.30;64.50
34406;DHT22;20658;45.630;8.886;2023-07-31T10:21:05;32.50;61.40
34406;DHT22;20658;45.630;8.886;2023-07-31T10:23:39;32.70;60.50
34406;DHT22;20658;45.630;8.886;2023-07-31T10:26:17;32.20;61.30
34406;DHT22;20658;45.630;8.886;2023-07-31T10:28:52;31.90;61.40
34406;DHT22;20658;45.630;8.886;2023-07-31T10:31:27;31.80;62.10
34406;DHT22;20658;45.630;8.886;2023-07-31T10:34:00;31.40;61.70
34406;DHT22;20658;45.630;8.886;2023-07-31T10:36:34;31.50;62.40
34406;DHT22;20658;45.630;8.886;2023-07-31T10:39:33;31.20;62.50
34406;DHT22;20658;45.630;8.886;2023-07-31T10:42:13;31.20;63.10
34406;DHT22;20658;45.630;8.886;2023-07-31T10:44:49;30.90;63.20
34406;DHT22;20658;45.630;8.886;2023-07-31T10:47:24;31.20;64.00
34406;DHT22;20658;45.630;8.886;2023-07-31T10:50:16;31.50;61.60
34406;DHT22;20658;45.630;8.886;2023-07-31T10:52:52;31.40;64.10
34406;DHT22;20658;45.630;8.886;2023-07-31T10:55:28;32.00;63.40
34406;DHT22;20658;45.630;8.886;2023-07-31T10:58:09;32.40;61.40
34406;DHT22;20658;45.630;8.886;2023-07-31T11:00:44;32.00;61.00
34406;DHT22;20658;45.630;8.886;2023-07-31T11:03:19;31.40;60.80
34406;DHT22;20658;45.630;8.886;2023-07-31T11:06:00;31.20;62.10
34406;DHT22;20658;45.630;8.886;2023-07-31T11:08:38;31.00;62.30
34406;DHT22;20658;45.630;8.886;2023-07-31T11:11:16;30.90;62.10
34406;DHT22;20658;45.630;8.886;2023-07-31T11:13:53;30.90;61.80
34406;DHT22;20658;45.630;8.886;2023-07-31T11:16:29;31.00;62.90
34406;DHT22;20658;45.630;8.886;2023-07-31T11:19:03;31.30;62.70
34406;DHT22;20658;45.630;8.886;2023-07-31T11:21:41;32.10;60.90
34406;DHT22;20658;45.630;8.886;2023-07-31T11:24:15;32.60;59.20
34406;DHT22;20658;45.630;8.886;2023-07-31T11:26:50;32.40;58.50
34406;DHT22;20658;45.630;8.886;2023-07-31T11:29:20;32.60;58.30
34406;DHT22;20658;45.630;8.886;2023-07-31T11:32:00;33.00;58.40
34406;DHT22;20658;45.630;8.886;2023-07-31T11:34:51;32.90;56.30
34406;DHT22;20658;45.630;8.886;2023-07-31T11:37:38;33.10;57.70
34406;DHT22;20658;45.630;8.886;2023-07-31T11:40:13;33.50;56.80
34406;DHT22;20658;45.630;8.886;2023-07-31T11:42:46;32.80;55.70
34406;DHT22;20658;45.630;8.886;2023-07-31T11:45:21;32.30;57.30
34406;DHT22;20658;45.630;8.886;2023-07-31T11:47:58;32.40;58.30
34406;DHT22;20658;45.630;8.886;2023-07-31T11:50:33;33.00;57.10
34406;DHT22;20658;45.630;8.886;2023-07-31T11:53:08;32.70;56.60
34406;DHT22;20658;45.630;8.886;2023-07-31T11:55:42;32.40;57.50
34406;DHT22;20658;45.630;8.886;2023-07-31T11:58:18;32.20;58.10
34406;DHT22;20658;45.630;8.886;2023-07-31T12:00:54;32.90;56.50
34406;DHT22;20658;45.630;8.886;2023-07-31T12:03:27;32.80;56.00
34406;DHT22;20658;45.630;8.886;2023-07-31T12:06:01;32.70;55.70
34406;DHT22;20658;45.630;8.886;2023-07-31T12:08:36;32.90;55.60
34406;DHT22;20658;45.630;8.886;2023-07-31T12:11:10;32.70;56.00
34406;DHT22;20658;45.630;8.886;2023-07-31T12:13:43;32.50;56.70
34406;DHT22;20658;45.630;8.886;2023-07-31T12:16:18;32.50;56.80
34406;DHT22;20658;45.630;8.886;2023-07-31T12:18:52;32.40;56.60
34406;DHT22;20658;45.630;8.886;2023-07-31T12:21:27;32.40;56.00
34406;DHT22;20658;45.630;8.886;2023-07-31T12:24:02;32.40;55.60
34406;DHT22;20658;45.630;8.886;2023-07-31T12:26:35;32.50;55.90
34406;DHT22;20658;45.630;8.886;2023-07-31T12:29:09;32.60;55.60
34406;DHT22;20658;45.630;8.886;2023-07-31T12:31:44;32.00;57.00
34406;DHT22;20658;45.630;8.886;2023-07-31T12:34:18;31.80;57.10
34406;DHT22;20658;45.630;8.886;2023-07-31T12:36:53;31.60;57.40
34406;DHT22;20658;45.630;8.886;2023-07-31T12:39:27;31.80;57.80
34406;DHT22;20658;45.630;8.886;2023-07-31T12:42:00;31.90;56.60
34406;DHT22;20658;45.630;8.886;2023-07-31T12:44:34;32.10;56.70
34406;DHT22;20658;45.630;8.886;2023-07-31T12:47:08;32.10;55.90
34406;DHT22;20658;45.630;8.886;2023-07-31T12:49:45;31.90;56.10
34406;DHT22;20658;45.630;8.886;2023-07-31T12:52:18;32.00;57.40
34406;DHT22;20658;45.630;8.886;2023-07-31T12:54:52;31.90;56.90
34406;DHT22;20658;45.630;8.886;2023-07-31T12:57:25;32.30;56.60
34406;DHT22;20658;45.630;8.886;2023-07-31T12:59:58;32.80;54.60
34406;DHT22;20658;45.630;8.886;2023-07-31T13:02:33;32.40;55.80
34406;DHT22;20658;45.630;8.886;2023-07-31T13:05:07;32.10;56.00
34406;DHT22;20658;45.630;8.886;2023-07-31T13:07:41;32.00;55.70
34406;DHT22;20658;45.630;8.886;2023-07-31T13:10:14;32.10;55.30
34406;DHT22;20658;45.630;8.886;2023-07-31T13:12:48;31.70;55.00
34406;DHT22;20658;45.630;8.886;2023-07-31T13:15:21;31.60;55.50
34406;DHT22;20658;45.630;8.886;2023-07-31T13:17:56;31.70;56.10
34406;DHT22;20658;45.630;8.886;2023-07-31T13:20:30;31.90;56.10
34406;DHT22;20658;45.630;8.886;2023-07-31T13:23:03;31.90;55.90
34406;DHT22;20658;45.630;8.886;2023-07-31T13:25:36;32.00;56.00
34406;DHT22;20658;45.630;8.886;2023-07-31T13:28:10;32.10;55.40
34406;DHT22;20658;45.630;8.886;2023-07-31T13:30:43;32.20;55.60
34406;DHT22;20658;45.630;8.886;2023-07-31T13:33:19;32.20;55.50
34406;DHT22;20658;45.630;8.886;2023-07-31T13:35:52;32.10;55.20
34406;DHT22;20658;45.630;8.886;2023-07-31T13:38:26;32.00;55.60
34406;DHT22;20658;45.630;8.886;2023-07-31T13:40:59;31.90;55.40
34406;DHT22;20658;45.630;8.886;2023-07-31T13:43:32;32.70;54.70
34406;DHT22;20658;45.630;8.886;2023-07-31T13:46:06;32.60;54.00
34406;DHT22;20658;45.630;8.886;2023-07-31T13:48:42;32.50;54.20
34406;DHT22;20658;45.630;8.886;2023-07-31T13:51:15;32.60;54.60
34406;DHT22;20658;45.630;8.886;2023-07-31T13:53:49;32.90;53.90
34406;DHT22;20658;45.630;8.886;2023-07-31T13:56:22;33.40;53.40
34406;DHT22;20658;45.630;8.886;2023-07-31T13:58:56;33.80;52.10
34406;DHT22;20658;45.630;8.886;2023-07-31T14:01:30;34.00;52.50
34406;DHT22;20658;45.630;8.886;2023-07-31T14:04:05;34.00;52.20
34406;DHT22;20658;45.630;8.886;2023-07-31T14:06:39;34.10;51.80
34406;DHT22;20658;45.630;8.886;2023-07-31T14:09:12;33.60;51.40
34406;DHT22;20658;45.630;8.886;2023-07-31T14:11:46;33.40;52.50
34406;DHT22;20658;45.630;8.886;2023-07-31T14:14:19;33.40;52.90
34406;DHT22;20658;45.630;8.886;2023-07-31T14:16:53;33.10;52.30
34406;DHT22;20658;45.630;8.886;2023-07-31T14:19:27;33.00;52.80
34406;DHT22;20658;45.630;8.886;2023-07-31T14:22:01;33.00;53.20
34406;DHT22;20658;45.630;8.886;2023-07-31T14:24:34;33.10;53.10
34406;DHT22;20658;45.630;8.886;2023-07-31T14:27:08;33.20;53.30
34406;DHT22;20658;45.630;8.886;2023-07-31T14:29:41;33.10;53.90
34406;DHT22;20658;45.630;8.886;2023-07-31T14:32:33;33.00;53.70
34406;DHT22;20658;45.630;8.886;2023-07-31T14:35:10;33.10;52.80
34406;DHT22;20658;45.630;8.886;2023-07-31T14:37:44;33.10;53.10
34406;DHT22;20658;45.630;8.886;2023-07-31T14:40:18;33.00;53.10
34406;DHT22;20658;45.630;8.886;2023-07-31T14:42:52;33.00;53.10
34406;DHT22;20658;45.630;8.886;2023-07-31T14:45:25;33.20;53.40
34406;DHT22;20658;45.630;8.886;2023-07-31T14:47:58;33.20;52.90
34406;DHT22;20658;45.630;8.886;2023-07-31T14:50:33;33.20;53.60
34406;DHT22;20658;45.630;8.886;2023-07-31T14:53:07;33.10;53.00
34406;DHT22;20658;45.630;8.886;2023-07-31T14:55:41;33.00;53.20
34406;DHT22;20658;45.630;8.886;2023-07-31T14:58:14;33.20;52.20
34406;DHT22;20658;45.630;8.886;2023-07-31T15:00:49;33.40;51.70
34406;DHT22;20658;45.630;8.886;2023-07-31T15:03:22;33.80;51.30
34406;DHT22;20658;45.630;8.886;2023-07-31T15:05:58;34.20;50.00
34406;DHT22;20658;45.630;8.886;2023-07-31T15:08:31;34.40;50.50
34406;DHT22;20658;45.630;8.886;2023-07-31T15:11:05;34.30;50.10
34406;DHT22;20658;45.630;8.886;2023-07-31T15:13:38;34.30;50.80
34406;DHT22;20658;45.630;8.886;2023-07-31T15:16:12;34.50;49.70
34406;DHT22;20658;45.630;8.886;2023-07-31T15:18:45;34.50;49.60
34406;DHT22;20658;45.630;8.886;2023-07-31T15:21:20;34.90;49.40
34406;DHT22;20658;45.630;8.886;2023-07-31T15:23:53;34.50;49.90
34406;DHT22;20658;45.630;8.886;2023-07-31T15:26:27;34.30;50.40
34406;DHT22;20658;45.630;8.886;2023-07-31T15:29:02;34.50;50.20
34406;DHT22;20658;45.630;8.886;2023-07-31T15:31:40;34.40;49.90
34406;DHT22;20658;45.630;8.886;2023-07-31T15:34:09;34.60;49.70
34406;DHT22;20658;45.630;8.886;2023-07-31T15:36:44;35.00;49.50
34406;DHT22;20658;45.630;8.886;2023-07-31T15:39:17;35.20;49.00
34406;DHT22;20658;45.630;8.886;2023-07-31T15:41:51;35.50;48.60
34406;DHT22;20658;45.630;8.886;2023-07-31T15:44:24;36.00;48.20
34406;DHT22;20658;45.630;8.886;2023-07-31T15:46:58;36.20;46.90
34406;DHT22;20658;45.630;8.886;2023-07-31T15:49:31;36.10;46.40
34406;DHT22;20658;45.630;8.886;2023-07-31T15:52:01;36.10;46.20
34406;DHT22;20658;45.630;8.886;2023-07-31T15:54:35;36.20;46.30
34406;DHT22;20658;45.630;8.886;2023-07-31T15:57:08;36.40;44.90
34406;DHT22;20658;45.630;8.886;2023-07-31T15:59:42;35.70;45.20
34406;DHT22;20658;45.630;8.886;2023-07-31T16:02:15;35.30;46.00
34406;DHT22;20658;45.630;8.886;2023-07-31T16:04:48;35.00;45.80
34406;DHT22;20658;45.630;8.886;2023-07-31T16:07:23;34.80;46.20
34406;DHT22;20658;45.630;8.886;2023-07-31T16:09:56;34.50;46.60
34406;DHT22;20658;45.630;8.886;2023-07-31T16:12:30;34.30;48.00
34406;DHT22;20658;45.630;8.886;2023-07-31T16:15:04;34.00;48.80
34406;DHT22;20658;45.630;8.886;2023-07-31T16:17:38;33.80;49.00